Time;durP1;ratioP1;P1;durP2;ratioP2;P2;SDS_P1;SDS_P2;PMS_P1;PMS_P2;Temp;Humidity;BMP_temperature;BMP_pressure;BME280_temperature;BME280_humidity;BME280_pressure;Samples;Min_cycle;Max_cycle;Signal;HPM_P1;HPM_P2
2022/03/01 00:02:04;;;;;;;;;66.00;54.25;;;;;5.48;57.50;102023.75;5034226;28;45421;-84
2022/03/01 00:04:29;;;;;;;;;62.50;51.00;;;;;5.59;57.17;102050.63;5034280;28;45215;-92
2022/03/01 00:06:55;;;;;;;;;70.00;54.00;;;;;5.72;57.43;102068.13;5034302;28;46562;-91
2022/03/01 00:09:20;;;;;;;;;69.25;55.25;;;;;6.09;57.67;102132.72;5033529;28;45668;-84
2022/03/01 00:11:45;;;;;;;;;63.25;52.50;;;;;5.52;57.79;102038.81;5034486;28;45497;-89
2022/03/01 00:14:11;;;;;;;;;66.33;54.67;;;;;6.05;57.62;102141.09;5034223;28;45481;-90
2022/03/01 00:16:36;;;;;;;;;62.25;50.75;;;;;5.95;57.88;102128.16;5033599;28;46591;-79
2022/03/01 00:19:02;;;;;;;;;63.33;51.00;;;;;5.98;57.51;102146.66;5016156;28;45535;-87
2022/03/01 00:21:30;;;;;;;;;67.75;52.75;;;;;5.94;57.63;102134.16;5016201;28;45392;-80
2022/03/01 00:23:56;;;;;;;;;60.00;49.75;;;;;5.92;58.13;102134.06;5015156;28;45309;-92
2022/03/01 00:26:22;;;;;;;;;64.75;54.50;;;;;5.39;58.04;102055.22;5034682;28;45403;-89
2022/03/01 00:28:47;;;;;;;;;59.75;48.50;;;;;5.48;58.00;102064.56;5034625;28;45426;-86
2022/03/01 00:31:13;;;;;;;;;63.50;51.50;;;;;5.83;58.15;102127.22;5034961;28;45623;-86
2022/03/01 00:33:39;;;;;;;;;59.50;49.00;;;;;5.67;58.17;102097.34;5034910;28;45484;-91
2022/03/01 00:36:05;;;;;;;;;60.25;49.75;;;;;5.78;58.16;102128.56;5034249;28;46466;-87
2022/03/01 00:38:30;;;;;;;;;62.75;49.25;;;;;5.57;58.05;102091.34;5034290;28;45646;-89
2022/03/01 00:40:56;;;;;;;;;53.25;46.25;;;;;5.17;57.94;102041.31;5016469;28;45269;-81
2022/03/01 00:43:25;;;;;;;;;66.50;54.00;;;;;5.27;58.60;102051.69;5034189;28;45390;-89
2022/03/01 00:45:52;;;;;;;;;61.75;49.75;;;;;5.63;58.43;102121.38;5033756;28;45848;-84
2022/03/01 00:48:18;;;;;;;;;59.50;50.00;;;;;5.25;58.46;102068.00;5015821;28;45718;-91
2022/03/01 00:50:44;;;;;;;;;67.25;53.25;;;;;5.00;58.33;102028.72;5015727;28;45396;-90
2022/03/01 00:53:09;;;;;;;;;62.50;51.25;;;;;5.56;59.00;102131.22;5033903;28;45347;-83
2022/03/01 00:55:35;;;;;;;;;63.25;51.50;;;;;5.20;58.56;102078.06;5033128;28;47603;-83
2022/03/01 00:58:01;;;;;;;;;64.50;53.00;;;;;5.37;58.68;102105.44;5015447;28;45746;-80
2022/03/01 01:00:27;;;;;;;;;59.50;50.25;;;;;5.54;58.34;102132.81;5033203;28;45369;-81
2022/03/01 01:02:52;;;;;;;;;68.50;55.50;;;;;5.10;58.51;102057.28;5033122;28;45384;-82
2022/03/01 01:05:18;;;;;;;;;64.25;53.25;;;;;5.33;58.47;102106.00;5033561;28;45778;-91
2022/03/01 01:07:43;;;;;;;;;62.00;50.00;;;;;4.92;58.49;102023.78;5033886;28;45483;-90
2022/03/01 01:10:09;;;;;;;;;64.50;51.25;;;;;5.13;58.67;102061.06;5033686;28;45283;-88
2022/03/01 01:12:37;;;;;;;;;64.00;52.50;;;;;4.83;58.61;102003.97;5034394;28;45427;-90
2022/03/01 01:15:04;;;;;;;;;59.75;47.50;;;;;5.51;58.67;102127.34;5033806;28;46424;-90
2022/03/01 01:17:29;;;;;;;;;61.75;50.75;;;;;5.29;58.85;102093.50;5015929;28;46075;-90
2022/03/01 01:19:55;;;;;;;;;60.50;50.25;;;;;5.16;58.84;102069.09;5034238;28;45415;-90
2022/03/01 01:25:05;;;;;;;;;63.25;50.25;;;;;4.34;59.14;101935.06;5033203;28;45465;-86
2022/03/01 01:27:31;;;;;;;;;63.75;51.00;;;;;5.35;59.29;102115.75;5033093;28;45296;-89
2022/03/01 01:29:56;;;;;;;;;64.33;52.33;;;;;5.35;59.34;102101.81;5033239;28;45378;-86
2022/03/01 01:32:22;;;;;;;;;68.25;56.25;;;;;5.34;59.33;102102.59;5015108;28;45480;-90
2022/03/01 01:34:47;;;;;;;;;61.75;49.75;;;;;4.78;59.45;102013.09;5015884;28;46629;-88
2022/03/01 01:37:13;;;;;;;;;66.00;55.00;;;;;4.92;59.66;102056.75;5018457;28;45521;-89
2022/03/01 01:39:38;;;;;;;;;59.00;48.33;;;;;4.68;59.39;101998.47;5036207;28;45301;-81
2022/03/01 01:42:04;;;;;;;;;56.67;47.67;;;;;4.77;59.25;102011.28;5036176;28;45273;-86
2022/03/01 01:44:30;;;;;;;;;58.25;49.50;;;;;4.52;59.31;101977.22;5036654;28;46599;-89
2022/03/01 01:46:56;;;;;;;;;61.75;50.75;;;;;4.50;59.25;101969.31;5036361;28;45295;-86
2022/03/01 01:49:22;;;;;;;;;55.75;47.50;;;;;4.70;59.41;102001.19;5036453;28;45277;-87
2022/03/01 01:51:47;;;;;;;;;64.00;51.25;;;;;5.28;59.21;102105.63;5036466;28;45411;-83
2022/03/01 01:54:14;;;;;;;;;60.00;49.75;;;;;5.30;59.57;102106.66;5035718;28;46331;-80
2022/03/01 01:56:39;;;;;;;;;60.75;49.75;;;;;4.98;59.30;102091.13;5036324;28;45828;-83
2022/03/01 01:59:05;;;;;;;;;60.00;48.75;;;;;5.28;59.24;102122.97;5036025;28;45447;-80
2022/03/01 02:01:30;;;;;;;;;59.75;49.50;;;;;5.26;59.69;102115.03;5036962;28;45581;-88
2022/03/01 02:03:55;;;;;;;;;61.50;50.00;;;;;4.89;59.91;102064.34;5036470;28;45410;-86
2022/03/01 02:06:21;;;;;;;;;59.25;48.25;;;;;4.91;59.41;102067.97;5036255;28;45369;-90
2022/03/01 02:08:46;;;;;;;;;63.00;50.33;;;;;5.25;59.53;102120.13;5036276;28;45496;-90
2022/03/01 02:11:11;;;;;;;;;62.33;51.00;;;;;4.62;59.89;102011.91;5036193;28;45476;-86
2022/03/01 02:13:37;;;;;;;;;47.33;42.67;;;;;5.25;59.81;102120.13;5036319;28;45368;-88
2022/03/01 02:16:03;;;;;;;;;58.67;49.67;;;;;4.79;59.85;102039.28;5036183;28;45506;-90
2022/03/01 02:18:28;;;;;;;;;59.75;49.00;;;;;5.23;59.74;102113.91;5036571;28;45301;-85
2022/03/01 02:20:54;;;;;;;;;64.75;50.25;;;;;4.80;59.81;102050.59;5036313;28;45473;-85
2022/03/01 02:23:19;;;;;;;;;55.67;45.33;;;;;4.71;59.86;102024.75;5036124;28;45436;-80
2022/03/01 02:25:44;;;;;;;;;62.50;50.75;;;;;5.04;59.77;102085.50;5036772;28;45439;-88
2022/03/01 02:28:10;;;;;;;;;55.25;46.75;;;;;4.69;59.76;102025.44;5036570;28;45593;-90
2022/03/01 02:30:35;;;;;;;;;58.00;46.25;;;;;4.80;60.12;102030.69;5036897;28;45304;-90
2022/03/01 02:33:01;;;;;;;;;60.50;48.50;;;;;5.09;60.16;102071.13;5036076;28;45389;-86
2022/03/01 02:35:26;;;;;;;;;59.75;49.00;;;;;5.12;60.21;102074.88;5035944;28;45417;-90
2022/03/01 02:37:52;;;;;;;;;56.25;47.25;;;;;5.28;60.36;102099.53;5035763;28;45313;-81
2022/03/01 02:40:19;;;;;;;;;52.00;45.25;;;;;5.27;60.11;102100.28;5035540;28;45371;-80
2022/03/01 02:42:46;;;;;;;;;61.75;51.00;;;;;5.00;60.17;102050.47;5017812;28;47693;-82
2022/03/01 02:45:15;;;;;;;;;58.25;48.00;;;;;4.29;60.29;101929.50;5035525;28;45630;-89
2022/03/01 02:47:40;;;;;;;;;61.75;50.00;;;;;4.84;60.28;102037.03;5034918;28;45670;-80
2022/03/01 02:50:07;;;;;;;;;58.00;49.00;;;;;4.35;60.51;101950.78;5035750;28;45435;-82
2022/03/01 02:52:33;;;;;;;;;61.75;50.00;;;;;5.14;60.35;102088.03;5034949;28;45413;-83
2022/03/01 02:54:59;;;;;;;;;57.75;46.75;;;;;4.89;60.36;102053.94;5034893;28;45392;-83
2022/03/01 02:57:24;;;;;;;;;64.75;50.00;;;;;5.20;60.16;102104.13;5017363;28;45455;-81
2022/03/01 02:59:51;;;;;;;;;57.50;46.00;;;;;4.98;60.28;102062.47;5035032;28;45376;-84
2022/03/01 03:02:16;;;;;;;;;61.00;49.50;;;;;4.59;60.07;101985.66;5035395;28;45369;-80
2022/03/01 03:04:42;;;;;;;;;56.50;47.25;;;;;5.39;60.06;102124.72;5035283;28;45487;-81
2022/03/01 03:07:07;;;;;;;;;57.50;49.25;;;;;5.24;60.05;102084.44;5035183;28;45386;-83
2022/03/01 03:09:33;;;;;;;;;57.25;46.25;;;;;5.42;60.37;102120.66;5034653;28;45444;-87
2022/03/01 03:11:59;;;;;;;;;59.25;48.00;;;;;5.34;60.22;102085.25;5034840;28;45991;-80
2022/03/01 03:14:24;;;;;;;;;61.50;49.00;;;;;5.13;60.12;102050.63;5035075;28;45400;-83
2022/03/01 03:16:49;;;;;;;;;56.75;48.00;;;;;5.04;60.26;102039.50;5035275;28;45590;-81
2022/03/01 03:19:15;;;;;;;;;55.50;47.00;;;;;5.51;60.22;102117.81;5035298;28;45440;-91
2022/03/01 03:21:45;;;;;;;;;58.75;48.75;;;;;5.00;60.47;102024.41;5034932;28;45426;-86
2022/03/01 03:24:11;;;;;;;;;52.00;44.50;;;;;5.40;60.49;102093.53;5034843;28;45544;-89
2022/03/01 03:26:37;;;;;;;;;57.25;47.50;;;;;5.33;60.37;102088.66;5017129;28;45397;-86
2022/03/01 03:29:09;;;;;;;;;61.75;49.25;;;;;5.09;60.04;102032.03;5035081;28;45571;-81
2022/03/01 03:31:39;;;;;;;;;57.00;48.00;;;;;5.54;60.51;102110.25;5034557;28;46461;-90
2022/03/01 03:34:08;;;;;;;;;57.25;47.00;;;;;5.53;60.59;102113.66;5034490;28;45297;-84
2022/03/01 03:36:34;;;;;;;;;60.00;48.75;;;;;5.13;60.34;102042.81;5034762;28;45323;-81
2022/03/01 03:39:00;;;;;;;;;62.25;48.75;;;;;5.53;60.78;102116.25;5034616;28;45424;-90
2022/03/01 03:41:26;;;;;;;;;60.25;49.00;;;;;5.33;60.46;102078.22;5016782;28;46679;-85
2022/03/01 03:43:51;;;;;;;;;57.25;46.75;;;;;5.15;60.56;102043.81;5034784;28;45461;-82
2022/03/01 03:46:16;;;;;;;;;56.75;48.50;;;;;5.16;60.74;102043.03;5016938;28;45555;-90
2022/03/01 03:48:42;;;;;;;;;57.67;48.00;;;;;5.34;60.81;102066.09;5034702;28;45622;-80
2022/03/01 03:51:07;;;;;;;;;64.50;50.75;;;;;5.12;60.98;102030.59;5034316;28;46273;-81
2022/03/01 03:53:33;;;;;;;;;63.00;51.75;;;;;5.31;61.15;102068.47;5034086;28;45416;-91
2022/03/01 03:55:58;;;;;;;;;57.00;47.50;;;;;5.23;61.03;102051.34;5034622;28;45208;-90
2022/03/01 03:58:24;;;;;;;;;59.75;47.50;;;;;4.74;60.91;101959.00;5034437;28;45277;-91
2022/03/01 04:00:49;;;;;;;;;65.00;51.00;;;;;5.04;60.90;102016.03;5034239;28;46335;-80
2022/03/01 04:03:14;;;;;;;;;60.33;48.33;;;;;5.26;60.80;102056.78;5034526;28;45421;-84
2022/03/01 04:05:39;;;;;;;;;60.00;50.00;;;;;5.36;61.03;102072.31;5034256;28;45464;-81
2022/03/01 04:08:06;;;;;;;;;63.67;52.00;;;;;5.39;61.10;102072.56;5033994;28;45333;-80
2022/03/01 04:10:31;;;;;;;;;59.25;49.25;;;;;5.37;61.02;102063.75;5034163;28;46126;-91
2022/03/01 04:12:56;;;;;;;;;56.25;46.75;;;;;5.02;60.79;101999.38;5034299;28;45485;-86
2022/03/01 04:15:22;;;;;;;;;60.33;50.33;;;;;5.58;60.93;102091.44;5033879;28;45353;-83
2022/03/01 04:17:48;;;;;;;;;60.00;49.25;;;;;5.13;60.95;102014.16;5016400;28;45478;-83
2022/03/01 04:20:14;;;;;;;;;54.25;42.75;;;;;5.57;61.13;102081.81;5016042;28;46260;-80
2022/03/01 04:22:40;;;;;;;;;57.25;48.25;;;;;5.53;60.92;102079.75;5034670;28;45416;-90
2022/03/01 04:25:07;;;;;;;;;61.00;49.75;;;;;5.05;61.02;101998.72;5034282;28;45534;-86
2022/03/01 04:27:33;;;;;;;;;65.75;50.00;;;;;5.27;61.16;102041.28;5034236;28;45339;-80
2022/03/01 04:29:58;;;;;;;;;64.25;51.00;;;;;5.21;60.81;102038.19;5033879;28;46075;-85
2022/03/01 04:32:23;;;;;;;;;65.33;51.33;;;;;5.21;60.93;102035.56;5033690;28;45401;-87
2022/03/01 04:34:49;;;;;;;;;60.25;50.00;;;;;5.63;60.49;102115.25;5034151;28;45272;-79
2022/03/01 04:37:17;;;;;;;;;62.00;51.25;;;;;5.64;60.38;102104.94;5033943;28;45467;-81
2022/03/01 04:39:42;;;;;;;;;64.50;51.75;;;;;5.17;60.58;102018.81;5033512;28;46268;-87
2022/03/01 04:42:08;;;;;;;;;64.50;52.00;;;;;5.38;60.84;102023.84;5033915;28;45530;-80
2022/03/01 04:44:34;;;;;;;;;55.00;45.75;;;;;5.12;60.60;101977.53;5033964;28;45622;-83
2022/03/01 04:47:01;;;;;;;;;61.00;50.50;;;;;5.77;60.87;102093.75;5033864;28;45590;-83
2022/03/01 04:49:27;;;;;;;;;68.75;54.25;;;;;5.20;60.83;101983.34;5015849;28;47356;-90
2022/03/01 04:51:52;;;;;;;;;62.75;51.75;;;;;5.81;60.47;102098.41;5033407;28;45397;-90
2022/03/01 04:54:17;;;;;;;;;63.67;50.33;;;;;5.29;60.20;102010.09;5033569;28;45293;-82
2022/03/01 04:56:43;;;;;;;;;65.00;51.00;;;;;5.31;60.46;102012.00;5033762;28;45626;-84
2022/03/01 04:59:09;;;;;;;;;69.00;55.67;;;;;5.87;60.48;102103.19;5033615;28;46458;-89
2022/03/01 05:01:34;;;;;;;;;63.75;51.25;;;;;5.63;61.02;102044.84;5033498;28;45619;-82
2022/03/01 05:04:00;;;;;;;;;64.33;51.33;;;;;5.53;61.08;102025.00;5033662;28;45285;-84
2022/03/01 05:06:25;;;;;;;;;65.33;53.00;;;;;5.55;61.02;102020.78;5033766;28;45380;-87
2022/03/01 05:08:50;;;;;;;;;63.67;51.33;;;;;5.83;61.23;102075.94;5033305;28;45356;-81
2022/03/01 05:11:16;;;;;;;;;62.25;47.00;;;;;5.83;61.24;102054.16;5036056;28;45288;-83
2022/03/01 05:13:41;;;;;;;;;59.67;51.00;;;;;5.67;60.96;102023.41;5019326;28;45516;-85
2022/03/01 05:16:07;;;;;;;;;66.00;51.67;;;;;5.92;60.72;102074.06;5037358;28;45369;-81
2022/03/01 05:18:32;;;;;;;;;69.25;54.50;;;;;6.00;61.07;102077.22;5037473;28;46242;-89
2022/03/01 05:20:57;;;;;;;;;59.75;50.50;;;;;5.78;61.03;102030.34;5037368;28;45392;-89
2022/03/01 05:23:23;;;;;;;;;62.00;50.00;;;;;6.06;61.33;102085.53;5036980;28;45241;-88
2022/03/01 05:25:48;;;;;;;;;67.33;53.00;;;;;6.08;61.31;102090.84;5037381;28;45557;-92
2022/03/01 05:28:14;;;;;;;;;67.00;53.67;;;;;5.98;60.49;102071.00;5037244;28;46461;-90
2022/03/01 05:30:39;;;;;;;;;62.25;52.00;;;;;5.88;60.68;102056.31;5036381;28;45519;-87
2022/03/01 05:33:04;;;;;;;;;63.33;50.67;;;;;5.82;60.65;102026.25;5019040;28;45455;-88
2022/03/01 05:35:32;;;;;;;;;66.00;53.33;;;;;6.13;60.98;102077.34;5036611;28;45344;-83
2022/03/01 05:37:57;;;;;;;;;61.00;50.00;;;;;5.74;61.00;102003.91;5036203;28;46241;-83
2022/03/01 05:40:26;;;;;;;;;70.00;52.50;;;;;6.16;61.06;102082.78;5036664;28;45467;-87
2022/03/01 05:42:53;;;;;;;;;67.50;55.25;;;;;6.17;61.30;102079.38;5036713;28;45517;-85
2022/03/01 05:45:22;;;;;;;;;61.75;51.00;;;;;5.59;60.93;101980.22;5037030;28;45292;-90
2022/03/01 05:47:48;;;;;;;;;64.75;51.75;;;;;6.00;61.27;102047.59;5037248;28;46524;-89
2022/03/01 05:50:15;;;;;;;;;65.00;52.00;;;;;5.56;61.27;101966.94;5036932;28;45460;-90
2022/03/01 05:52:41;;;;;;;;;64.00;51.75;;;;;6.10;61.48;102057.91;5036890;28;45345;-90
2022/03/01 05:55:09;;;;;;;;;64.75;52.50;;;;;6.02;61.59;102040.81;5037076;28;45567;-90
2022/03/01 05:57:35;;;;;;;;;62.75;51.75;;;;;6.23;61.39;102083.22;5036932;28;45491;-88
2022/03/01 06:00:04;;;;;;;;;63.25;50.25;;;;;5.75;61.25;101992.69;5036805;28;45328;-90
2022/03/01 06:02:29;;;;;;;;;65.00;51.00;;;;;6.08;61.55;102039.56;5037319;28;45464;-90
2022/03/01 06:04:55;;;;;;;;;66.25;54.00;;;;;6.01;61.41;102021.66;5037127;28;45232;-91
2022/03/01 06:07:20;;;;;;;;;62.25;52.00;;;;;6.30;61.28;102064.59;5036097;28;46335;-89
2022/03/01 06:09:45;;;;;;;;;62.50;51.25;;;;;5.52;61.21;101931.91;5030061;28;45810;-86
2022/03/01 06:12:11;;;;;;;;;66.50;54.25;;;;;6.32;61.04;102063.94;5026672;28;45403;-85
2022/03/01 06:14:36;;;;;;;;;63.00;51.75;;;;;6.10;61.08;102024.91;5027201;28;45612;-85
2022/03/01 06:17:02;;;;;;;;;62.67;51.33;;;;;5.88;61.13;101991.09;5024648;28;45451;-90
2022/03/01 06:19:28;;;;;;;;;66.50;52.00;;;;;5.30;60.93;101898.13;5027916;28;45349;-89
2022/03/01 06:21:53;;;;;;;;;63.00;51.67;;;;;5.71;61.13;101965.44;5020983;28;45468;-88
2022/03/01 06:24:19;;;;;;;;;65.50;52.00;;;;;6.00;61.42;102018.91;5027181;28;45399;-89
2022/03/01 06:26:44;;;;;;;;;66.00;52.25;;;;;5.34;61.48;101899.28;5033479;28;46714;-90
2022/03/01 06:29:10;;;;;;;;;68.75;51.25;;;;;6.35;61.11;102095.47;5036280;28;45388;-90
2022/03/01 06:31:36;;;;;;;;;64.50;52.75;;;;;6.36;61.70;102083.34;5036573;28;45321;-90
2022/03/01 06:34:01;;;;;;;;;64.75;52.50;;;;;5.85;61.64;101984.72;5036988;28;45646;-91
2022/03/01 06:36:27;;;;;;;;;64.75;52.00;;;;;5.91;61.72;101995.59;5036179;28;45609;-85
2022/03/01 06:38:52;;;;;;;;;66.75;55.00;;;;;6.26;61.42;102054.75;5035935;28;45466;-91
2022/03/01 06:41:18;;;;;;;;;67.25;54.25;;;;;6.45;61.36;102086.59;5036336;28;45376;-92
2022/03/01 06:43:44;;;;;;;;;64.25;51.75;;;;;6.26;61.23;102046.91;5036447;28;45586;-89
2022/03/01 06:46:09;;;;;;;;;64.00;52.25;;;;;5.99;61.17;101998.81;5035202;28;46461;-88
2022/03/01 06:48:35;;;;;;;;;68.50;54.25;;;;;6.10;61.13;102024.91;5033972;28;45447;-89
2022/03/01 06:51:02;;;;;;;;;67.00;54.75;;;;;6.13;60.90;102014.69;5015863;28;45473;-90
2022/03/01 06:53:27;;;;;;;;;64.50;54.00;;;;;6.43;60.76;102068.22;5017471;28;45338;-88
2022/03/01 06:55:52;;;;;;;;;65.67;52.67;;;;;6.43;60.60;102069.91;5019654;28;46537;-89
2022/03/01 06:58:18;;;;;;;;;62.00;50.25;;;;;6.34;60.42;102066.63;5028825;28;45131;-90
2022/03/01 07:00:44;;;;;;;;;65.75;52.25;;;;;6.14;59.75;102016.50;5034881;28;45325;-91
2022/03/01 07:03:10;;;;;;;;;63.50;52.25;;;;;6.75;60.26;102116.66;5035563;28;45413;-90
2022/03/01 07:05:36;;;;;;;;;64.50;53.25;;;;;6.78;60.29;102111.63;5035755;28;46391;-91
2022/03/01 07:08:01;;;;;;;;;64.00;50.75;;;;;6.61;60.32;102086.03;5035032;28;45368;-90
2022/03/01 07:10:27;;;;;;;;;63.75;53.25;;;;;5.83;59.99;101939.38;5036079;28;45981;-91
2022/03/01 07:12:52;;;;;;;;;60.00;49.00;;;;;6.31;60.01;102029.88;5036160;28;45349;-90
2022/03/01 07:15:18;;;;;;;;;61.50;51.25;;;;;6.49;60.19;102067.75;5018313;28;48383;-90
2022/03/01 07:17:45;;;;;;;;;66.00;54.75;;;;;6.54;60.02;102097.72;5036028;28;45368;-89
2022/03/01 07:20:11;;;;;;;;;60.00;50.50;;;;;6.32;60.17;102045.66;5036072;28;45353;-91
2022/03/01 07:22:37;;;;;;;;;61.50;50.75;;;;;6.79;60.10;102107.31;5035656;28;45641;-90
2022/03/01 07:25:03;;;;;;;;;64.00;53.50;;;;;6.76;59.91;102099.28;5035294;28;46642;-90
2022/03/01 07:27:28;;;;;;;;;63.25;52.50;;;;;6.88;59.70;102108.88;5035191;28;45361;-89
2022/03/01 07:29:55;;;;;;;;;61.67;51.00;;;;;7.00;60.15;102102.72;5035292;28;45478;-89
2022/03/01 07:32:20;;;;;;;;;66.50;54.00;;;;;7.11;60.28;102122.69;5017250;28;45647;-90
2022/03/01 07:34:45;;;;;;;;;64.33;52.00;;;;;6.58;60.16;102018.78;5035830;28;46415;-89
2022/03/01 07:37:11;;;;;;;;;61.67;50.00;;;;;6.75;60.29;102040.91;5035242;28;45328;-91
2022/03/01 07:39:36;;;;;;;;;62.75;50.25;;;;;6.93;59.90;102086.59;5035061;28;45367;-90
2022/03/01 07:42:03;;;;;;;;;61.00;51.25;;;;;6.87;59.87;102064.34;5035343;28;45306;-90
2022/03/01 07:44:28;;;;;;;;;40.00;32.50;;;;;7.21;60.22;102123.44;5035307;28;46397;-90
2022/03/01 07:46:53;;;;;;;;;68.50;53.50;;;;;6.73;60.16;102025.09;5035105;28;45454;-88
2022/03/01 07:49:19;;;;;;;;;66.75;54.50;;;;;6.68;60.30;102000.34;5035418;28;45346;-87
2022/03/01 07:51:44;;;;;;;;;67.50;54.00;;;;;6.19;60.13;101902.88;5034972;28;45440;-90
2022/03/01 07:54:10;;;;;;;;;67.75;54.25;;;;;7.48;60.06;102116.59;5034978;28;46573;-90
2022/03/01 07:56:35;;;;;;;;;62.33;51.33;;;;;7.58;59.37;102114.59;5035117;28;45280;-90
2022/03/01 07:59:00;;;;;;;;;68.25;55.75;;;;;7.03;59.56;101996.66;5035258;28;45356;-90
2022/03/01 08:01:26;;;;;;;;;67.75;54.00;;;;;7.01;59.22;101979.06;5035038;28;45467;-89
2022/03/01 08:03:52;;;;;;;;;63.75;52.50;;;;;7.45;59.37;102039.63;5035061;28;46495;-91
2022/03/01 08:06:17;;;;;;;;;64.67;53.67;;;;;7.55;59.20;102039.44;5017306;28;45359;-90
2022/03/01 08:08:43;;;;;;;;;70.50;56.00;;;;;7.46;58.57;102012.66;5034624;28;45532;-90
2022/03/01 08:11:08;;;;;;;;;67.75;53.25;;;;;7.36;58.19;101973.63;5035304;28;45285;-90
2022/03/01 08:13:35;;;;;;;;;68.00;54.50;;;;;8.35;58.08;102132.03;5034945;28;45497;-86
2022/03/01 08:16:02;;;;;;;;;70.25;56.25;;;;;8.47;57.99;102126.72;5034927;28;45653;-90
2022/03/01 08:18:27;;;;;;;;;70.00;56.75;;;;;8.28;58.01;102075.72;5034889;28;45423;-90
2022/03/01 08:20:54;;;;;;;;;66.25;53.75;;;;;8.64;57.88;102125.22;5016749;28;45646;-88
2022/03/01 08:23:20;;;;;;;;;69.50;56.00;;;;;8.52;57.56;102097.41;5034320;28;45479;-92
2022/03/01 08:25:45;;;;;;;;;62.25;51.50;;;;;8.21;56.85;102039.47;5034614;28;45313;-90
2022/03/01 08:28:13;;;;;;;;;64.25;52.25;;;;;8.56;56.94;102090.63;5034954;28;45360;-90
2022/03/01 08:30:39;;;;;;;;;67.00;55.00;;;;;8.15;56.38;102017.22;5017286;28;45599;-91
2022/03/01 08:33:05;;;;;;;;;66.75;51.50;;;;;8.68;56.74;102117.63;5034467;28;45451;-91
2022/03/01 08:35:32;;;;;;;;;58.75;49.75;;;;;8.35;56.35;102057.78;5034399;28;45400;-89
2022/03/01 08:38:03;;;;;;;;;68.00;53.75;;;;;8.20;56.15;102035.03;5034307;28;45381;-88
2022/03/01 08:40:33;;;;;;;;;64.75;51.50;;;;;8.68;56.26;102121.97;5034489;28;45277;-91
2022/03/01 08:42:58;;;;;;;;;56.75;48.00;;;;;8.63;56.50;102112.91;5016654;28;47323;-90
2022/03/01 08:45:24;;;;;;;;;56.00;46.00;;;;;8.69;56.15;102108.06;5033935;28;45730;-90
2022/03/01 08:47:50;;;;;;;;;64.00;51.25;;;;;8.78;56.18;102122.66;5034144;28;45404;-92
2022/03/01 08:50:16;;;;;;;;;60.00;50.00;;;;;8.77;56.46;102119.94;5034451;28;45534;-92
2022/03/01 08:52:41;;;;;;;;;66.75;53.75;;;;;8.69;56.10;102094.94;5034019;28;46166;-91
2022/03/01 08:55:08;;;;;;;;;56.67;46.00;;;;;8.84;56.30;102109.03;5034640;28;45410;-93
2022/03/01 08:57:35;;;;;;;;;67.50;53.75;;;;;8.98;56.89;102115.16;5034492;28;45413;-91
2022/03/01 09:00:00;;;;;;;;;61.00;49.50;;;;;8.83;56.69;102078.38;5034236;28;45288;-91
2022/03/01 09:02:26;;;;;;;;;62.25;52.50;;;;;8.86;56.68;102070.69;5034292;28;45404;-88
2022/03/01 09:04:51;;;;;;;;;64.33;53.33;;;;;8.69;56.51;102034.66;5034248;28;45459;-91
2022/03/01 09:07:16;;;;;;;;;66.00;52.00;;;;;9.29;56.45;102137.22;5034442;28;45510;-90
2022/03/01 09:09:42;;;;;;;;;66.50;53.25;;;;;9.35;55.91;102131.44;5033836;28;45539;-90
2022/03/01 09:12:08;;;;;;;;;67.25;53.00;;;;;9.25;55.62;102093.25;5034158;28;45649;-90
2022/03/01 09:14:33;;;;;;;;;69.75;53.75;;;;;9.24;54.68;102075.69;5033983;28;45356;-91
2022/03/01 09:16:58;;;;;;;;;64.75;52.00;;;;;9.47;54.70;102105.06;5034176;28;45379;-90
2022/03/01 09:19:24;;;;;;;;;63.50;49.25;;;;;9.09;54.79;102030.16;5034814;28;45517;-91
2022/03/01 09:21:49;;;;;;;;;67.33;55.00;;;;;9.51;55.12;102083.44;5034008;28;46259;-91
2022/03/01 09:24:14;;;;;;;;;60.67;50.67;;;;;9.77;54.39;102119.13;5033948;28;45458;-91
2022/03/01 09:26:40;;;;;;;;;68.00;53.75;;;;;9.86;53.79;102124.03;5034692;28;45424;-91
2022/03/01 09:29:06;;;;;;;;;64.25;52.25;;;;;9.39;53.65;102023.25;5034286;28;45382;-91
2022/03/01 09:31:31;;;;;;;;;69.75;56.25;;;;;9.92;54.21;102106.91;5034251;28;46252;-90
2022/03/01 09:33:57;;;;;;;;;65.75;52.50;;;;;10.07;54.20;102117.41;5034334;28;45314;-90
2022/03/01 09:36:22;;;;;;;;;65.75;53.00;;;;;10.18;54.05;102124.19;5033730;28;45478;-89
2022/03/01 09:38:48;;;;;;;;;68.00;53.75;;;;;9.92;53.87;102050.84;5034005;28;45318;-90
2022/03/01 09:41:14;;;;;;;;;63.25;52.25;;;;;10.32;54.08;102088.22;5034650;28;46019;-91
2022/03/01 09:43:41;;;;;;;;;65.25;52.00;;;;;10.58;53.87;102111.63;5016887;28;45571;-91
2022/03/01 09:46:08;;;;;;;;;65.00;49.25;;;;;10.57;53.63;102088.78;5034397;28;45424;-90
2022/03/01 09:48:35;;;;;;;;;64.75;51.50;;;;;10.77;53.05;102124.09;5033878;28;45347;-91
2022/03/01 09:51:01;;;;;;;;;64.00;51.00;;;;;10.83;52.64;102105.09;5033440;28;45661;-90
2022/03/01 09:53:27;;;;;;;;;61.75;50.25;;;;;10.92;52.65;102094.19;5033429;28;45626;-89
2022/03/01 09:55:54;;;;;;;;;65.50;52.00;;;;;10.77;52.50;102074.13;5034667;28;45455;-90
2022/03/01 09:58:19;;;;;;;;;62.25;50.50;;;;;10.60;52.23;102040.75;5037323;28;45352;-90
2022/03/01 10:00:45;;;;;;;;;60.00;49.50;;;;;10.81;52.20;102084.00;5037353;28;45555;-90
2022/03/01 10:03:15;;;;;;;;;64.50;51.00;;;;;10.77;52.15;102079.38;5037367;28;45395;-90
2022/03/01 10:05:42;;;;;;;;;63.75;50.75;;;;;10.92;52.01;102112.63;5036785;28;45421;-88
2022/03/01 10:08:09;;;;;;;;;61.25;49.75;;;;;10.69;51.47;102075.44;5036379;28;45404;-90
2022/03/01 10:10:47;;;;;;;;;69.25;56.00;;;;;10.39;51.70;102010.63;5036909;28;45660;-89
2022/03/01 10:13:22;;;;;;;;;61.75;50.00;;;;;10.96;51.77;102112.88;5036596;28;45717;-89
2022/03/01 10:15:50;;;;;;;;;60.50;49.50;;;;;10.52;51.33;102039.41;5036784;28;45341;-90
2022/03/01 10:18:16;;;;;;;;;56.25;45.25;;;;;11.11;51.47;102125.94;5036959;28;45277;-90
2022/03/01 10:20:45;;;;;;;;;71.00;56.25;;;;;10.95;51.55;102045.31;5036900;28;46382;-89
2022/03/01 10:23:11;;;;;;;;;63.50;50.00;;;;;11.22;51.62;102053.75;5036317;28;45372;-89
2022/03/01 10:25:39;;;;;;;;;65.00;50.50;;;;;11.81;51.14;102123.50;5036902;28;45363;-92
2022/03/01 10:28:05;;;;;;;;;59.75;47.75;;;;;12.01;50.86;102111.41;5036639;28;45571;-92
2022/03/01 10:30:34;;;;;;;;;59.50;47.75;;;;;11.97;50.35;102060.28;5036481;28;45411;-88
2022/03/01 10:33:11;;;;;;;;;56.50;47.00;;;;;12.34;49.91;102070.91;5036709;28;45320;-90
2022/03/01 10:35:39;;;;;;;;;58.75;49.25;;;;;12.80;49.10;102096.81;5036965;28;45475;-92
2022/03/01 10:38:06;;;;;;;;;63.75;51.75;;;;;13.07;48.29;102089.31;5018539;28;45534;-92
2022/03/01 10:40:33;;;;;;;;;61.00;49.50;;;;;13.39;48.81;102090.78;5036559;28;45421;-91
2022/03/01 10:43:05;;;;;;;;;79.25;63.25;;;;;13.59;48.10;102056.41;5036537;28;45559;-92
2022/03/01 10:45:50;;;;;;;;;58.25;46.50;;;;;14.00;47.50;102078.44;5036418;28;45247;-92
2022/03/01 10:48:37;;;;;;;;;54.50;45.00;;;;;14.20;47.25;102086.34;5018517;28;45349;-91
2022/03/01 10:51:08;;;;;;;;;56.25;45.00;;;;;14.22;46.53;102083.75;5035836;28;46279;-91
2022/03/01 10:53:39;;;;;;;;;51.75;42.50;;;;;13.92;46.54;102051.66;5036060;28;45356;-91
2022/03/01 10:56:12;;;;;;;;;55.00;43.25;;;;;14.00;45.65;102081.97;5036460;28;45663;-91
2022/03/01 10:58:41;;;;;;;;;53.50;44.50;;;;;13.62;45.68;102012.56;5036239;28;45409;-91
2022/03/01 11:01:07;;;;;;;;;52.00;43.50;;;;;13.53;46.28;101995.41;5035864;28;45393;-91
2022/03/01 11:03:33;;;;;;;;;50.00;39.25;;;;;13.84;46.36;102048.72;5035915;28;45794;-91
2022/03/01 11:06:00;;;;;;;;;45.00;36.00;;;;;13.64;46.19;102002.03;5035812;28;45305;-93
2022/03/01 11:08:35;;;;;;;;;47.75;40.50;;;;;13.98;46.16;102056.31;5034923;28;45569;-91
2022/03/01 11:11:02;;;;;;;;;38.00;34.00;;;;;13.91;46.03;102057.81;5035559;28;45278;-91
2022/03/01 11:13:31;;;;;;;;;42.25;37.75;;;;;13.35;45.25;101977.06;5035883;28;45298;-90
2022/03/01 11:16:34;;;;;;;;;46.25;38.00;;;;;13.74;45.66;102067.63;5036161;28;45702;-89